createdAt,value
2022-08-26T00:01:59.464Z,7.35
2022-08-26T00:05:03.978Z,8.05
2022-08-26T00:08:08.652Z,9.13
2022-08-26T00:11:16.418Z,7.90
2022-08-26T00:14:31.666Z,8.70
2022-08-26T00:17:35.134Z,7.93
2022-08-26T00:20:39.449Z,8.57
2022-08-26T00:23:46.453Z,6.73
2022-08-26T00:26:50.241Z,10.13
2022-08-26T00:29:55.028Z,8.38
2022-08-26T00:33:00.384Z,8.77
2022-08-26T00:36:06.459Z,9.57
2022-08-26T00:39:10.081Z,9.03
2022-08-26T00:42:13.721Z,9.43
2022-08-26T00:45:17.244Z,9.63
2022-08-26T00:48:24.311Z,8.43
2022-08-26T00:51:29.992Z,9.70
2022-08-26T00:54:42.383Z,9.40
2022-08-26T00:57:50.830Z,8.83
2022-08-26T01:00:55.190Z,9.05
2022-08-26T01:03:59.109Z,10.20
2022-08-26T01:07:04.900Z,10.48
2022-08-26T01:10:14.364Z,11.70
2022-08-26T01:13:18.268Z,11.33
2022-08-26T01:16:25.662Z,11.55
2022-08-26T01:19:43.611Z,10.70
2022-08-26T01:22:55.565Z,14.93
2022-08-26T01:26:21.977Z,11.43
2022-08-26T01:29:26.070Z,11.00
2022-08-26T01:32:31.520Z,11.50
2022-08-26T01:35:36.224Z,10.32
2022-08-26T01:38:40.421Z,9.32
2022-08-26T01:41:44.912Z,10.33
2022-08-26T01:44:59.682Z,11.00
2022-08-26T01:48:07.319Z,9.68
2022-08-26T01:51:12.473Z,10.68
2022-08-26T01:54:15.964Z,10.50
2022-08-26T01:57:20.409Z,9.27
2022-08-26T02:00:25.280Z,9.30
2022-08-26T02:03:30.932Z,9.00
2022-08-26T02:06:35.788Z,9.43
2022-08-26T02:09:41.690Z,10.48
2022-08-26T02:12:44.955Z,9.90
2022-08-26T02:15:49.163Z,10.63
2022-08-26T02:18:55.576Z,9.73
2022-08-26T02:22:03.471Z,10.50
2022-08-26T02:25:29.296Z,8.95
2022-08-26T02:28:40.253Z,10.00
2022-08-26T02:31:43.545Z,11.13
2022-08-26T02:34:47.164Z,10.38
2022-08-26T02:37:52.005Z,10.02
2022-08-26T02:40:56.358Z,11.13
2022-08-26T02:43:59.864Z,11.13
2022-08-26T02:47:03.663Z,9.90
2022-08-26T02:50:08.718Z,7.93
2022-08-26T02:53:14.286Z,8.00
2022-08-26T02:56:18.423Z,8.95
2022-08-26T02:59:24.490Z,8.77
2022-08-26T03:02:28.893Z,10.80
2022-08-26T03:05:32.177Z,8.50
2022-08-26T03:08:35.704Z,7.20
2022-08-26T03:11:39.332Z,9.43
2022-08-26T03:14:42.493Z,8.13
2022-08-26T03:17:47.198Z,11.30
2022-08-26T03:20:53.087Z,5.57
2022-08-26T03:23:58.626Z,3.80
2022-08-26T03:27:02.030Z,7.65
2022-08-26T03:30:30.286Z,9.87
2022-08-26T03:33:33.504Z,10.33
2022-08-26T03:36:36.747Z,8.35
2022-08-26T03:39:39.940Z,4.30
2022-08-26T03:42:45.457Z,10.18
2022-08-26T03:45:48.672Z,10.77
2022-08-26T03:48:55.153Z,10.33
2022-08-26T03:51:58.374Z,7.60
2022-08-26T03:55:01.904Z,8.00
2022-08-26T03:58:06.355Z,4.32
2022-08-26T04:01:09.574Z,10.20
2022-08-26T04:04:15.424Z,10.23
2022-08-26T04:07:18.931Z,8.25
2022-08-26T04:10:28.412Z,7.63
2022-08-26T04:13:32.590Z,6.15
2022-08-26T04:16:36.194Z,4.40
2022-08-26T04:19:40.825Z,7.13
2022-08-26T04:22:45.070Z,9.95
2022-08-26T04:25:48.220Z,9.45
2022-08-26T04:28:54.642Z,8.07
2022-08-26T04:31:57.923Z,9.30
2022-08-26T04:35:01.277Z,7.70
2022-08-26T04:38:05.821Z,7.00
2022-08-26T04:41:15.263Z,10.82
2022-08-26T04:44:20.809Z,6.97
2022-08-26T04:47:27.166Z,10.50
2022-08-26T04:50:33.701Z,9.20
2022-08-26T04:53:37.833Z,7.75
2022-08-26T04:56:44.113Z,8.23
2022-08-26T04:59:47.932Z,6.85
2022-08-26T05:02:55.762Z,11.43
2022-08-26T05:06:03.255Z,7.47
2022-08-26T05:09:06.933Z,9.60
2022-08-26T05:12:10.292Z,10.57
2022-08-26T05:15:13.471Z,9.95
2022-08-26T05:18:19.991Z,11.03
2022-08-26T05:21:26.044Z,10.27
2022-08-26T05:24:31.048Z,9.60
2022-08-26T05:27:34.164Z,10.88
2022-08-26T05:30:38.114Z,9.98
2022-08-26T05:33:42.098Z,8.80
2022-08-26T05:36:46.068Z,8.67
2022-08-26T05:39:51.141Z,8.05
2022-08-26T05:42:55.091Z,9.27
2022-08-26T05:46:07.139Z,9.85
2022-08-26T05:49:12.610Z,9.80
2022-08-26T05:52:16.200Z,10.23
2022-08-26T05:55:20.633Z,10.15
2022-08-26T05:58:24.629Z,9.20
2022-08-26T06:01:30.167Z,9.73
2022-08-26T06:04:33.396Z,12.20
2022-08-26T06:07:55.344Z,12.10
2022-08-26T06:11:02.328Z,11.05
2022-08-26T06:14:07.894Z,9.57
2022-08-26T06:17:11.218Z,11.20
2022-08-26T06:20:16.331Z,12.30
2022-08-26T06:23:39.289Z,9.77
2022-08-26T06:26:50.583Z,9.55
2022-08-26T06:29:55.496Z,9.57
2022-08-26T06:32:58.748Z,9.18
2022-08-26T06:36:02.281Z,9.77
2022-08-26T06:39:10.183Z,9.10
2022-08-26T06:42:13.543Z,8.98
2022-08-26T06:45:18.172Z,7.85
2022-08-26T06:48:21.631Z,9.18
2022-08-26T06:51:28.337Z,9.17
2022-08-26T06:54:31.877Z,9.13
2022-08-26T06:57:39.767Z,7.88
2022-08-26T07:00:47.328Z,6.97
2022-08-26T07:03:54.253Z,7.40
2022-08-26T07:07:00.304Z,8.20
2022-08-26T07:10:03.606Z,7.43
2022-08-26T07:13:08.035Z,7.55
2022-08-26T07:16:14.148Z,6.38
2022-08-26T07:19:29.939Z,7.00
2022-08-26T07:22:36.699Z,7.10
2022-08-26T07:25:42.144Z,7.07
2022-08-26T07:28:47.389Z,6.75
2022-08-26T07:31:50.568Z,6.30
2022-08-26T07:34:54.038Z,6.13
2022-08-26T07:37:57.557Z,6.83
2022-08-26T07:41:01.813Z,6.23
2022-08-26T07:44:05.306Z,6.10
2022-08-26T07:47:10.459Z,6.05
2022-08-26T07:50:49.294Z,6.28
2022-08-26T07:53:55.017Z,6.33
2022-08-26T07:56:58.313Z,6.70
2022-08-26T08:00:02.712Z,6.07
2022-08-26T08:03:15.457Z,5.50
2022-08-26T08:06:27.259Z,5.97
2022-08-26T08:09:31.258Z,6.30
2022-08-26T08:12:34.772Z,6.63
2022-08-26T08:15:38.106Z,6.30
2022-08-26T08:18:44.066Z,5.97
2022-08-26T08:21:47.343Z,5.57
2022-08-26T08:24:53.239Z,5.83
2022-08-26T08:27:56.970Z,5.80
2022-08-26T08:31:00.558Z,5.50
2022-08-26T08:34:03.919Z,5.75
2022-08-26T08:37:10.606Z,5.50
2022-08-26T08:40:18.854Z,6.23
2022-08-26T08:43:41.923Z,5.90
2022-08-26T08:46:47.781Z,5.65
2022-08-26T08:49:52.392Z,5.53
2022-08-26T08:53:18.680Z,5.70
2022-08-26T08:56:46.876Z,6.67
2022-08-26T09:00:02.348Z,6.40
2022-08-26T09:03:47.260Z,6.25
2022-08-26T09:06:55.573Z,6.68
2022-08-26T09:10:23.151Z,7.90
2022-08-26T09:13:27.585Z,6.43
2022-08-26T09:16:36.971Z,6.93
2022-08-26T09:19:52.693Z,6.30
2022-08-26T09:22:57.449Z,6.57
2022-08-26T09:26:03.988Z,7.03
2022-08-26T09:29:28.690Z,6.70
2022-08-26T09:32:32.220Z,6.87
2022-08-26T09:35:38.180Z,6.35
2022-08-26T09:38:42.105Z,6.50
2022-08-26T09:41:56.957Z,6.63
2022-08-26T09:45:10.455Z,6.53
2022-08-26T09:48:43.035Z,7.23
2022-08-26T09:51:46.397Z,6.13
2022-08-26T09:55:16.128Z,6.30
2022-08-26T09:58:41.924Z,7.47
2022-08-26T10:01:45.487Z,6.37
2022-08-26T10:04:54.370Z,6.37
2022-08-26T10:07:58.737Z,6.00
2022-08-26T10:11:17.780Z,6.65
2022-08-26T10:14:49.585Z,6.65
2022-08-26T10:18:15.829Z,6.93
2022-08-26T10:21:31.208Z,6.63
2022-08-26T10:24:51.915Z,5.40
2022-08-26T10:28:37.389Z,6.93
2022-08-26T10:32:03.611Z,6.50
2022-08-26T10:35:10.613Z,6.77
2022-08-26T10:38:18.487Z,5.60
2022-08-26T10:41:24.953Z,6.82
2022-08-26T10:44:34.345Z,6.38
2022-08-26T10:47:55.713Z,7.38
2022-08-26T10:51:02.196Z,6.63
2022-08-26T10:54:09.795Z,6.73
2022-08-26T10:57:57.537Z,7.47
2022-08-26T11:01:43.266Z,6.82
2022-08-26T11:04:57.704Z,7.05
2022-08-26T11:08:20.004Z,7.37
2022-08-26T11:11:42.382Z,7.23
2022-08-26T11:14:53.507Z,8.13
2022-08-26T11:18:10.619Z,6.93
2022-08-26T11:21:46.251Z,7.47
2022-08-26T11:24:56.796Z,6.23
2022-08-26T11:28:00.891Z,7.13
2022-08-26T11:31:10.105Z,7.05
2022-08-26T11:34:14.364Z,8.00
2022-08-26T11:40:28.186Z,7.20
2022-08-26T11:43:32.496Z,7.43
2022-08-26T11:46:37.643Z,7.90
2022-08-26T11:49:41.799Z,7.15
2022-08-26T11:53:01.945Z,7.65
2022-08-26T11:56:16.995Z,7.07
2022-08-26T12:02:42.257Z,7.68
2022-08-26T12:05:49.155Z,6.20
2022-08-26T12:08:55.473Z,7.15
2022-08-26T12:12:12.153Z,8.03
2022-08-26T12:15:17.035Z,7.30
2022-08-26T12:18:28.780Z,7.72
2022-08-26T12:21:34.834Z,6.50
2022-08-26T12:24:46.684Z,8.75
2022-08-26T12:27:53.701Z,7.60
2022-08-26T12:31:02.872Z,7.57
2022-08-26T12:34:17.918Z,7.50
2022-08-26T12:37:21.796Z,7.53
2022-08-26T12:40:39.576Z,7.10
2022-08-26T12:43:46.534Z,9.03
2022-08-26T12:46:49.975Z,7.63
2022-08-26T12:50:18.177Z,7.78
2022-08-26T12:53:23.061Z,7.93
2022-08-26T12:56:29.328Z,7.70
2022-08-26T12:59:32.703Z,6.43
2022-08-26T13:02:37.345Z,6.63
2022-08-26T13:05:40.549Z,6.45
2022-08-26T13:09:00.380Z,6.05
2022-08-26T13:12:03.587Z,5.95
2022-08-26T13:15:08.255Z,5.73
2022-08-26T13:18:11.454Z,6.20
2022-08-26T13:21:27.425Z,6.43
2022-08-26T13:24:36.898Z,6.78
2022-08-26T13:27:40.367Z,7.03
2022-08-26T13:30:46.680Z,7.43
2022-08-26T13:33:49.932Z,6.77
2022-08-26T13:36:56.217Z,6.80
2022-08-26T13:39:59.497Z,7.05
2022-08-26T13:43:02.906Z,6.53
2022-08-26T13:46:06.191Z,7.10
2022-08-26T13:49:09.788Z,6.50
2022-08-26T13:52:13.461Z,6.70
2022-08-26T13:55:17.165Z,7.63
2022-08-26T13:58:20.744Z,6.90
2022-08-26T14:01:24.565Z,7.70
2022-08-26T14:04:27.800Z,6.87
2022-08-26T14:07:30.887Z,7.00
2022-08-26T14:10:34.279Z,6.75
2022-08-26T14:13:37.711Z,6.95
2022-08-26T14:16:59.746Z,7.23
2022-08-26T14:20:04.273Z,7.33
2022-08-26T14:23:14.234Z,6.68
2022-08-26T14:26:28.967Z,7.45
2022-08-26T14:29:35.398Z,6.85
2022-08-26T14:32:43.440Z,6.53
2022-08-26T14:35:47.359Z,7.10
2022-08-26T14:38:53.225Z,7.10
2022-08-26T14:41:57.343Z,6.70
2022-08-26T14:45:04.814Z,6.75
2022-08-26T14:48:08.688Z,7.13
2022-08-26T14:51:12.447Z,6.93
2022-08-26T14:54:17.125Z,7.15
2022-08-26T14:57:20.396Z,6.72
2022-08-26T15:00:23.633Z,6.70
2022-08-26T15:03:28.113Z,6.67
2022-08-26T15:06:31.949Z,6.60
2022-08-26T15:09:37.392Z,6.82
2022-08-26T15:12:41.462Z,7.05
2022-08-26T15:15:44.645Z,6.65
2022-08-26T15:18:48.352Z,6.30
2022-08-26T15:21:51.744Z,6.80
2022-08-26T15:24:55.030Z,6.93
2022-08-26T15:27:58.317Z,6.85
2022-08-26T15:31:01.635Z,6.53
2022-08-26T15:34:07.653Z,6.40
2022-08-26T15:37:10.963Z,8.00
2022-08-26T15:40:14.250Z,6.55
2022-08-26T15:43:28.779Z,7.28
2022-08-26T15:46:34.215Z,7.35
2022-08-26T15:49:39.351Z,7.20
2022-08-26T15:52:42.593Z,6.50
2022-08-26T15:55:46.138Z,6.75
2022-08-26T15:58:49.322Z,7.38
2022-08-26T16:01:53.172Z,6.75
2022-08-26T16:04:56.441Z,6.90
2022-08-26T16:08:03.533Z,7.77
2022-08-26T16:14:24.761Z,7.32
2022-08-26T16:17:34.157Z,6.50
2022-08-26T16:20:55.284Z,6.93
2022-08-26T16:24:10.481Z,7.50
2022-08-26T16:27:13.929Z,7.97
2022-08-26T16:30:19.446Z,6.88
2022-08-26T16:33:29.590Z,7.13
2022-08-26T16:36:33.512Z,8.37
2022-08-26T16:39:40.189Z,7.93
2022-08-26T16:42:48.689Z,7.00
2022-08-26T16:45:51.832Z,6.95
2022-08-26T16:48:56.736Z,7.80
2022-08-26T16:51:59.886Z,7.67
2022-08-26T16:55:04.532Z,7.53
2022-08-26T16:58:07.797Z,7.45
2022-08-26T17:01:11.528Z,7.10
2022-08-26T17:04:14.755Z,7.10
2022-08-26T17:07:17.941Z,6.90
2022-08-26T17:10:21.815Z,7.53
2022-08-26T17:13:34.764Z,6.72
2022-08-26T17:16:39.640Z,7.18
2022-08-26T17:19:46.869Z,6.85
2022-08-26T17:22:51.859Z,7.33
2022-08-26T17:25:55.092Z,7.37
2022-08-26T17:28:59.071Z,8.13
2022-08-26T17:32:02.412Z,6.45
2022-08-26T17:35:06.600Z,6.72
2022-08-26T17:38:10.047Z,6.77
2022-08-26T17:41:16.017Z,7.07
2022-08-26T17:44:19.305Z,7.22
2022-08-26T17:47:22.546Z,7.80
2022-08-26T17:50:25.742Z,7.20
2022-08-26T17:53:29.423Z,7.53
2022-08-26T17:56:32.649Z,7.93
2022-08-26T17:59:35.798Z,7.50
2022-08-26T18:02:39.834Z,8.02
2022-08-26T18:05:47.178Z,8.25
2022-08-26T18:08:50.630Z,7.73
2022-08-26T18:11:53.867Z,8.07
2022-08-26T18:14:57.031Z,7.63
2022-08-26T18:18:01.878Z,8.50
2022-08-26T18:21:13.063Z,8.23
2022-08-26T18:24:16.318Z,8.33
2022-08-26T18:27:19.557Z,8.97
2022-08-26T18:30:23.128Z,9.27
2022-08-26T18:33:26.313Z,9.23
2022-08-26T18:36:35.820Z,9.48
2022-08-26T18:39:39.120Z,10.53
2022-08-26T18:42:42.411Z,9.40
2022-08-26T18:45:45.737Z,8.10
2022-08-26T18:48:50.953Z,7.53
2022-08-26T18:51:54.603Z,7.32
2022-08-26T18:54:57.780Z,8.70
2022-08-26T18:58:01.051Z,9.20
2022-08-26T19:01:04.474Z,9.43
2022-08-26T19:04:14.709Z,8.55
2022-08-26T19:07:20.504Z,8.18
2022-08-26T19:10:24.604Z,8.03
2022-08-26T19:13:27.917Z,8.30
2022-08-26T19:16:31.598Z,8.15
2022-08-26T19:19:34.961Z,7.97
2022-08-26T19:22:38.145Z,8.85
2022-08-26T19:25:48.710Z,8.97
2022-08-26T19:28:52.878Z,8.00
2022-08-26T19:31:56.578Z,9.65
2022-08-26T19:34:59.812Z,10.45
2022-08-26T19:38:03.841Z,10.90
2022-08-26T19:41:07.126Z,12.10
2022-08-26T19:44:35.817Z,11.13
2022-08-26T19:47:39.891Z,10.32
2022-08-26T19:50:45.128Z,10.60
2022-08-26T19:53:49.589Z,8.40
2022-08-26T19:56:52.692Z,8.27
2022-08-26T19:59:55.936Z,8.07
2022-08-26T20:02:59.724Z,8.38
2022-08-26T20:06:07.723Z,10.00
2022-08-26T20:09:10.892Z,9.98
2022-08-26T20:12:15.196Z,7.80
2022-08-26T20:15:20.441Z,7.73
2022-08-26T20:18:42.412Z,7.63
2022-08-26T20:21:45.622Z,6.70
2022-08-26T20:24:49.457Z,6.30
2022-08-26T20:27:52.632Z,6.40
2022-08-26T20:30:56.011Z,6.37
2022-08-26T20:33:59.463Z,6.53
2022-08-26T20:37:03.255Z,6.45
2022-08-26T20:40:09.142Z,5.35
2022-08-26T20:43:12.473Z,6.80
2022-08-26T20:46:18.197Z,6.27
2022-08-26T20:49:22.714Z,6.47
2022-08-26T20:52:25.998Z,7.00
2022-08-26T20:55:29.636Z,6.80
2022-08-26T20:58:33.070Z,8.73
2022-08-26T21:01:38.458Z,5.93
2022-08-26T21:04:48.589Z,6.15
2022-08-26T21:07:51.727Z,5.85
2022-08-26T21:10:55.984Z,5.90
2022-08-26T21:14:16.063Z,7.13
2022-08-26T21:17:20.541Z,5.90
2022-08-26T21:20:24.128Z,6.20
2022-08-26T21:23:29.293Z,6.30
2022-08-26T21:26:35.543Z,5.53
2022-08-26T21:29:38.709Z,5.97
2022-08-26T21:32:42.112Z,5.80
2022-08-26T21:35:58.121Z,6.10
2022-08-26T21:39:01.964Z,5.95
2022-08-26T21:42:05.603Z,6.13
2022-08-26T21:45:09.956Z,5.67
2022-08-26T21:48:13.149Z,5.53
2022-08-26T21:51:19.201Z,5.60
2022-08-26T21:54:23.591Z,4.85
2022-08-26T21:57:28.261Z,5.20
2022-08-26T22:00:33.849Z,5.30
2022-08-26T22:03:46.605Z,5.13
2022-08-26T22:06:53.701Z,5.22
2022-08-26T22:09:56.922Z,5.38
2022-08-26T22:13:00.106Z,4.75
2022-08-26T22:16:04.228Z,5.50
2022-08-26T22:19:07.713Z,5.17
2022-08-26T22:22:15.788Z,5.85
2022-08-26T22:25:19.218Z,5.07
2022-08-26T22:28:22.863Z,5.60
2022-08-26T22:31:37.336Z,5.57
2022-08-26T22:34:41.910Z,4.77
2022-08-26T22:37:45.141Z,5.28
2022-08-26T22:40:51.360Z,4.90
2022-08-26T22:43:57.204Z,8.48
2022-08-26T22:47:01.155Z,5.00
2022-08-26T22:50:06.000Z,5.10
2022-08-26T22:53:09.460Z,5.07
2022-08-26T22:56:14.145Z,5.13
2022-08-26T22:59:17.965Z,5.05
2022-08-26T23:02:21.259Z,4.73
2022-08-26T23:05:25.012Z,4.87
2022-08-26T23:08:28.564Z,4.53
2022-08-26T23:11:32.153Z,5.35
2022-08-26T23:14:35.343Z,4.57
2022-08-26T23:17:39.761Z,5.17
2022-08-26T23:20:43.584Z,4.93
2022-08-26T23:23:46.811Z,5.38
2022-08-26T23:26:50.008Z,4.90
2022-08-26T23:29:53.477Z,5.43
2022-08-26T23:32:57.013Z,5.60
2022-08-26T23:36:07.443Z,5.60
2022-08-26T23:39:12.878Z,6.00
2022-08-26T23:42:16.541Z,5.53
2022-08-26T23:45:20.884Z,5.80
2022-08-26T23:48:24.185Z,6.17
2022-08-26T23:51:46.057Z,6.53
2022-08-26T23:54:52.331Z,6.57
2022-08-26T23:57:55.501Z,6.03
